createdAt,value
2018-10-18T00:00:37.483Z,99.90
2018-10-18T00:03:06.118Z,99.90
2018-10-18T00:05:34.646Z,99.90
2018-10-18T00:08:03.605Z,99.90
2018-10-18T00:10:32.171Z,99.90
2018-10-18T00:13:00.707Z,99.90
2018-10-18T00:15:29.242Z,99.90
2018-10-18T00:17:57.830Z,99.90
2018-10-18T00:20:26.499Z,99.90
2018-10-18T00:22:55.044Z,99.90
2018-10-18T00:25:23.637Z,99.90
2018-10-18T00:27:52.191Z,99.90
2018-10-18T00:30:20.784Z,99.90
2018-10-18T00:32:49.735Z,99.90
2018-10-18T00:35:18.735Z,99.90
2018-10-18T00:37:47.295Z,99.90
2018-10-18T00:40:16.207Z,99.90
2018-10-18T00:42:44.774Z,99.90
2018-10-18T00:45:13.347Z,99.90
2018-10-18T00:47:41.899Z,99.90
2018-10-18T00:50:11.624Z,99.90
2018-10-18T00:52:40.563Z,99.90
2018-10-18T00:55:10.366Z,99.90
2018-10-18T00:57:39.260Z,99.90
2018-10-18T01:00:08.869Z,99.90
2018-10-18T01:02:37.451Z,99.90
2018-10-18T01:05:06.063Z,99.90
2018-10-18T01:07:34.645Z,99.90
2018-10-18T01:10:03.265Z,99.90
2018-10-18T01:12:31.928Z,99.90
2018-10-18T01:15:00.408Z,99.90
2018-10-18T01:17:29.075Z,99.90
2018-10-18T01:19:57.655Z,99.90
2018-10-18T01:22:26.198Z,99.90
2018-10-18T01:24:54.751Z,99.90
2018-10-18T01:27:23.293Z,99.90
2018-10-18T01:29:51.917Z,99.90
2018-10-18T01:32:20.453Z,99.90
2018-10-18T01:34:48.983Z,99.90
2018-10-18T01:37:17.515Z,99.90
2018-10-18T01:39:46.075Z,99.90
2018-10-18T01:42:15.016Z,99.90
2018-10-18T01:44:43.559Z,99.90
2018-10-18T01:47:12.114Z,99.90
2018-10-18T01:49:40.670Z,99.90
2018-10-18T01:52:09.221Z,99.90
2018-10-18T01:54:37.771Z,99.90
2018-10-18T01:57:07.207Z,99.90
2018-10-18T01:59:35.739Z,99.90
2018-10-18T02:02:04.433Z,99.90
2018-10-18T02:04:33.575Z,99.90
2018-10-18T02:07:02.128Z,99.90
2018-10-18T02:09:30.659Z,99.90
2018-10-18T02:11:59.666Z,99.90
2018-10-18T02:14:28.221Z,99.90
2018-10-18T02:16:56.777Z,99.90
2018-10-18T02:19:25.699Z,99.90
2018-10-18T02:21:54.247Z,99.90
2018-10-18T02:24:22.879Z,99.90
2018-10-18T02:26:51.751Z,99.90
2018-10-18T02:29:20.411Z,99.90
2018-10-18T02:31:48.953Z,99.90
2018-10-18T02:34:17.498Z,99.90
2018-10-18T02:36:46.047Z,99.90
2018-10-18T02:39:14.709Z,99.90
2018-10-18T02:41:43.282Z,99.90
2018-10-18T02:44:11.832Z,99.90
2018-10-18T02:46:40.418Z,99.90
2018-10-18T02:49:08.970Z,99.90
2018-10-18T02:51:37.810Z,99.90
2018-10-18T02:54:06.425Z,99.90
2018-10-18T02:56:35.434Z,99.90
2018-10-18T02:59:04.458Z,99.90
2018-10-18T03:01:33.018Z,99.90
2018-10-18T03:04:01.620Z,99.90
2018-10-18T03:06:30.182Z,99.90
2018-10-18T03:08:58.746Z,99.90
2018-10-18T03:11:27.285Z,99.90
2018-10-18T03:13:55.827Z,99.90
2018-10-18T03:16:24.651Z,99.90
2018-10-18T03:18:53.200Z,99.90
2018-10-18T03:21:21.751Z,99.90
2018-10-18T03:23:50.711Z,99.90
2018-10-18T03:26:19.269Z,99.90
2018-10-18T03:28:48.083Z,99.90
2018-10-18T03:31:16.647Z,99.90
2018-10-18T03:33:45.206Z,99.90
2018-10-18T03:36:13.829Z,99.90
2018-10-18T03:38:42.684Z,99.90
2018-10-18T03:41:11.679Z,99.90
2018-10-18T03:43:40.228Z,99.90
2018-10-18T03:46:08.759Z,99.90
2018-10-18T03:48:37.300Z,99.90
2018-10-18T03:51:05.866Z,99.90
2018-10-18T03:53:34.940Z,99.90
2018-10-18T03:56:03.487Z,99.90
2018-10-18T03:58:32.027Z,99.90
2018-10-18T04:01:00.564Z,99.90
2018-10-18T04:03:29.103Z,99.90
2018-10-18T04:05:57.965Z,99.90
2018-10-18T04:08:26.535Z,99.90
2018-10-18T04:10:55.087Z,99.90
2018-10-18T04:13:23.725Z,99.90
2018-10-18T04:15:52.203Z,99.90
2018-10-18T04:18:20.988Z,99.90
2018-10-18T04:20:49.547Z,99.90
2018-10-18T04:23:23.991Z,99.90
2018-10-18T04:25:53.259Z,99.90
2018-10-18T04:28:21.803Z,99.90
2018-10-18T04:30:50.371Z,99.90
2018-10-18T04:33:18.915Z,99.90
2018-10-18T04:35:47.475Z,99.90
2018-10-18T04:38:16.015Z,99.90
2018-10-18T04:40:44.581Z,99.90
2018-10-18T04:43:13.342Z,99.90
2018-10-18T04:45:42.240Z,99.90
2018-10-18T04:48:11.443Z,99.90
2018-10-18T04:50:40.518Z,99.90
2018-10-18T04:53:09.111Z,99.90
2018-10-18T04:55:37.690Z,99.90
2018-10-18T04:58:06.578Z,99.90
2018-10-18T05:00:35.207Z,99.90
2018-10-18T05:03:03.771Z,99.90
2018-10-18T05:05:58.126Z,99.90
2018-10-18T05:08:27.534Z,99.90
2018-10-18T05:10:56.465Z,99.90
2018-10-18T05:13:25.227Z,99.90
2018-10-18T05:15:53.907Z,99.90
2018-10-18T05:18:23.434Z,99.90
2018-10-18T05:20:52.119Z,99.90
2018-10-18T05:23:20.831Z,99.90
2018-10-18T05:25:50.159Z,99.90
2018-10-18T05:28:19.082Z,99.90
2018-10-18T05:30:47.661Z,99.90
2018-10-18T05:33:16.203Z,99.90
2018-10-18T05:35:44.809Z,99.90
2018-10-18T05:38:13.740Z,99.90
2018-10-18T05:40:42.330Z,99.90
2018-10-18T05:43:10.912Z,99.90
2018-10-18T05:45:39.458Z,99.90
2018-10-18T05:48:08.463Z,99.90
2018-10-18T05:50:37.075Z,99.90
2018-10-18T05:53:06.040Z,99.90
2018-10-18T05:56:01.518Z,99.90
2018-10-18T05:58:36.213Z,99.90
2018-10-18T06:01:27.563Z,99.90
2018-10-18T06:04:14.749Z,99.90
2018-10-18T06:07:01.755Z,99.90
2018-10-18T06:09:44.583Z,99.90
2018-10-18T06:12:26.775Z,99.90
2018-10-18T06:15:11.046Z,99.90
2018-10-18T06:17:52.415Z,99.90
2018-10-18T06:20:38.474Z,99.90
2018-10-18T06:23:24.676Z,99.90
2018-10-18T06:26:12.238Z,99.90
2018-10-18T06:28:54.821Z,99.90
2018-10-18T06:31:44.113Z,99.90
2018-10-18T06:34:18.387Z,99.90
2018-10-18T06:36:55.693Z,99.90
2018-10-18T06:39:45.485Z,99.90
2018-10-18T06:42:34.237Z,99.90
2018-10-18T06:45:20.030Z,99.90
2018-10-18T06:48:06.914Z,99.90
2018-10-18T06:50:57.330Z,99.90
2018-10-18T06:53:25.935Z,99.90
2018-10-18T06:55:55.119Z,99.90
2018-10-18T06:59:53.179Z,99.90
2018-10-18T07:02:21.740Z,99.90
2018-10-18T07:04:50.648Z,99.90
2018-10-18T07:07:19.245Z,99.90
2018-10-18T07:09:47.827Z,99.90
2018-10-18T07:12:16.933Z,99.90
2018-10-18T07:14:45.761Z,99.90
2018-10-18T07:17:14.429Z,99.90
2018-10-18T07:19:43.067Z,99.90
2018-10-18T07:22:11.723Z,99.90
2018-10-18T07:24:40.348Z,99.90
2018-10-18T07:27:09.475Z,99.90
2018-10-18T07:29:38.051Z,99.90
2018-10-18T07:32:07.275Z,99.90
2018-10-18T07:34:36.272Z,99.90
2018-10-18T07:37:05.764Z,99.90
2018-10-18T07:39:34.763Z,99.90
2018-10-18T07:42:04.668Z,99.90
2018-10-18T07:44:33.304Z,99.90
2018-10-18T07:47:02.055Z,99.90
2018-10-18T07:49:30.599Z,99.90
2018-10-18T07:51:59.510Z,99.90
2018-10-18T07:54:28.080Z,99.90
2018-10-18T07:56:57.071Z,99.90
2018-10-18T07:59:26.486Z,99.90
2018-10-18T08:01:55.066Z,99.90
2018-10-18T08:04:23.815Z,99.90
2018-10-18T08:06:52.686Z,99.90
2018-10-18T08:09:21.576Z,99.90
2018-10-18T08:11:50.178Z,99.90
2018-10-18T08:14:18.808Z,99.90
2018-10-18T08:16:48.039Z,99.90
2018-10-18T08:19:16.652Z,99.90
2018-10-18T08:21:45.231Z,99.90
2018-10-18T08:24:14.887Z,99.90
2018-10-18T08:26:44.048Z,99.90
2018-10-18T08:29:12.869Z,99.90
2018-10-18T08:31:41.555Z,99.90
2018-10-18T08:34:10.072Z,99.90
2018-10-18T08:36:41.865Z,99.90
2018-10-18T08:39:11.511Z,99.90
2018-10-18T08:41:46.922Z,99.90
2018-10-18T10:28:54.103Z,99.90
2018-10-18T10:31:22.684Z,99.90
2018-10-18T10:33:51.616Z,99.90
2018-10-18T10:36:20.223Z,99.90
2018-10-18T10:38:48.810Z,99.90
2018-10-18T10:41:17.937Z,99.90
2018-10-18T10:43:47.596Z,99.90
2018-10-18T10:46:16.326Z,99.90
2018-10-18T10:51:13.193Z,99.90
2018-10-18T10:53:42.328Z,99.90
2018-10-18T10:56:11.083Z,99.90
2018-10-18T10:58:39.523Z,99.90
2018-10-18T11:01:16.259Z,99.90
2018-10-18T11:03:45.244Z,99.90
2018-10-18T11:06:14.408Z,99.90
2018-10-18T11:08:43.086Z,99.90
2018-10-18T11:11:12.625Z,99.90
2018-10-18T11:13:41.258Z,99.90
2018-10-18T11:16:09.948Z,99.90
2018-10-18T11:18:39.121Z,99.90
2018-10-18T11:21:09.526Z,99.90
2018-10-18T11:23:38.061Z,99.90
2018-10-18T11:26:06.781Z,99.90
2018-10-18T11:28:35.551Z,96.80
2018-10-18T11:31:04.310Z,96.30
2018-10-18T11:33:32.908Z,94.70
2018-10-18T11:36:01.573Z,92.50
2018-10-18T11:38:36.843Z,90.70
2018-10-18T11:41:05.514Z,89.20
2018-10-18T11:43:36.472Z,86.10
2018-10-18T11:46:05.843Z,86.00
2018-10-18T11:48:34.720Z,87.20
2018-10-18T11:51:03.317Z,84.70
2018-10-18T11:53:31.902Z,84.30
2018-10-18T11:56:00.584Z,81.90
2018-10-18T11:58:29.163Z,79.50
2018-10-18T12:03:27.062Z,76.50
2018-10-18T12:05:55.627Z,75.20
2018-10-18T12:08:24.205Z,77.90
2018-10-18T12:10:52.838Z,73.80
2018-10-18T12:13:21.690Z,74.00
2018-10-18T12:15:50.264Z,71.60
2018-10-18T12:18:18.892Z,69.80
2018-10-18T12:20:47.467Z,71.00
2018-10-18T12:23:16.152Z,69.70
2018-10-18T12:25:45.003Z,67.80
2018-10-18T12:28:13.607Z,66.30
2018-10-18T12:30:42.223Z,65.90
2018-10-18T12:33:11.219Z,64.40
2018-10-18T12:35:39.797Z,64.30
2018-10-18T12:38:08.905Z,64.00
2018-10-18T12:40:37.593Z,63.70
2018-10-18T12:43:06.075Z,62.60
2018-10-18T12:45:34.774Z,61.80
2018-10-18T12:48:03.485Z,62.90
2018-10-18T12:50:32.460Z,62.70
2018-10-18T12:53:01.389Z,63.00
2018-10-18T12:55:30.103Z,61.70
2018-10-18T12:57:58.675Z,60.60
2018-10-18T13:00:27.296Z,62.20
2018-10-18T13:02:55.877Z,61.80
2018-10-18T13:05:24.499Z,60.90
2018-10-18T13:07:53.154Z,63.00
2018-10-18T13:10:21.818Z,62.10
2018-10-18T13:12:50.401Z,64.10
2018-10-18T13:15:19.016Z,65.40
2018-10-18T13:17:47.819Z,66.90
2018-10-18T13:20:16.893Z,66.30
2018-10-18T13:22:45.435Z,68.30
2018-10-18T13:25:14.773Z,64.80
2018-10-18T13:27:43.295Z,58.70
2018-10-18T13:30:12.250Z,56.80
2018-10-18T13:32:41.300Z,56.60
2018-10-18T13:36:39.338Z,57.30
2018-10-18T13:39:09.787Z,56.80
2018-10-18T13:41:38.566Z,59.80
2018-10-18T13:44:07.618Z,61.30
2018-10-18T14:18:46.220Z,59.40
2018-10-18T14:21:15.310Z,60.10
2018-10-18T14:26:12.152Z,58.80
2018-10-18T14:28:41.143Z,59.60
2018-10-18T14:31:09.722Z,60.30
2018-10-18T14:33:38.295Z,59.70
2018-10-18T14:36:07.607Z,60.90
2018-10-18T14:38:36.186Z,60.40
2018-10-18T14:41:04.823Z,60.60
2018-10-18T14:43:33.359Z,62.60
2018-10-18T14:46:01.939Z,61.60
2018-10-18T14:48:31.482Z,61.40
2018-10-18T14:51:00.137Z,61.70
2018-10-18T14:53:28.723Z,60.70
2018-10-18T14:55:57.517Z,62.20
2018-10-18T14:58:27.505Z,61.50
2018-10-18T15:00:56.671Z,62.30
2018-10-18T15:03:25.516Z,66.40
2018-10-18T15:05:54.093Z,67.00
2018-10-18T15:08:22.989Z,66.30
2018-10-18T15:10:51.619Z,65.60
2018-10-18T15:13:20.189Z,62.70
2018-10-18T15:15:48.769Z,61.30
2018-10-18T15:18:17.355Z,61.30
2018-10-18T15:22:15.375Z,61.10
2018-10-18T15:24:44.243Z,59.30
2018-10-18T15:27:13.103Z,59.70
2018-10-18T15:29:41.682Z,61.10
2018-10-18T15:32:10.372Z,61.10
2018-10-18T15:34:39.142Z,64.80
2018-10-18T15:37:07.727Z,62.20
2018-10-18T15:39:36.365Z,61.50
2018-10-18T15:42:05.431Z,62.00
2018-10-18T15:44:34.012Z,62.20
2018-10-18T15:47:02.724Z,66.50
2018-10-18T15:49:31.444Z,64.80
2018-10-18T15:52:00.291Z,66.10
2018-10-18T15:54:28.974Z,68.40
2018-10-18T15:56:57.574Z,68.10
2018-10-18T15:59:26.155Z,71.00
2018-10-18T16:01:54.731Z,72.40
2018-10-18T16:04:23.308Z,70.00
2018-10-18T16:06:51.959Z,67.60
2018-10-18T16:09:20.710Z,71.60
2018-10-18T16:11:49.295Z,71.20
2018-10-18T16:14:18.228Z,73.80
2018-10-18T16:16:46.777Z,71.90
2018-10-18T16:19:15.354Z,76.20
2018-10-18T16:21:44.013Z,73.60
2018-10-18T16:24:12.673Z,77.00
2018-10-18T16:26:41.275Z,74.90
2018-10-18T16:29:09.873Z,77.20
2018-10-18T16:31:38.454Z,79.30
2018-10-18T16:34:07.083Z,81.20
2018-10-18T16:36:35.792Z,81.80
2018-10-18T16:39:06.694Z,80.00
2018-10-18T16:41:35.361Z,83.20
2018-10-18T16:44:03.923Z,84.80
2018-10-18T16:46:33.086Z,84.60
2018-10-18T16:49:01.921Z,85.40
2018-10-18T16:51:30.502Z,87.30
2018-10-18T16:53:59.156Z,90.10
2018-10-18T16:56:27.720Z,90.40
2018-10-18T16:58:56.914Z,91.00
2018-10-18T17:01:25.683Z,90.70
2018-10-18T17:03:54.321Z,93.90
2018-10-18T17:06:23.098Z,94.00
2018-10-18T17:08:51.655Z,95.50
2018-10-18T17:11:20.289Z,96.90
2018-10-18T17:13:49.108Z,97.60
2018-10-18T17:16:17.770Z,99.90
2018-10-18T17:18:46.295Z,99.60
2018-10-18T17:21:15.367Z,99.90
2018-10-18T17:23:43.924Z,99.90
2018-10-18T17:26:12.552Z,99.90
2018-10-18T17:28:41.342Z,99.90
2018-10-18T17:31:10.189Z,99.90
2018-10-18T17:33:38.755Z,99.90
2018-10-18T17:36:07.433Z,99.90
2018-10-18T17:38:35.926Z,99.90
2018-10-18T17:41:05.404Z,99.90
2018-10-18T17:43:33.975Z,99.90
2018-10-18T17:46:02.575Z,99.90
2018-10-18T17:48:34.192Z,99.90
2018-10-18T17:51:02.907Z,99.90
2018-10-18T17:53:31.535Z,99.90
2018-10-18T17:56:02.702Z,99.90
2018-10-18T17:58:31.271Z,99.90
2018-10-18T18:01:08.511Z,99.90
2018-10-18T18:03:37.407Z,99.90
2018-10-18T18:06:06.051Z,99.90
2018-10-18T18:08:34.867Z,99.90
2018-10-18T18:11:03.440Z,99.90
2018-10-18T18:13:32.019Z,99.90
2018-10-18T18:16:00.795Z,99.90
2018-10-18T18:18:29.370Z,99.90
2018-10-18T18:20:57.964Z,99.90
2018-10-18T18:23:26.527Z,99.90
2018-10-18T18:25:55.752Z,99.90
2018-10-18T18:28:24.291Z,99.90
2018-10-18T18:30:52.823Z,99.90
2018-10-18T18:33:22.135Z,99.90
2018-10-18T18:35:50.699Z,99.90
2018-10-18T18:38:19.381Z,99.90
2018-10-18T18:40:47.918Z,99.90
2018-10-18T18:43:16.462Z,99.90
2018-10-18T18:45:45.017Z,99.90
2018-10-18T18:48:13.591Z,99.90
2018-10-18T18:50:43.229Z,99.90
2018-10-18T18:53:14.741Z,99.90
2018-10-18T18:55:43.847Z,99.90
2018-10-18T18:58:12.379Z,99.90
2018-10-18T19:00:40.928Z,99.90
2018-10-18T19:03:09.994Z,99.90
2018-10-18T19:05:39.056Z,99.90
2018-10-18T19:08:11.640Z,99.90
2018-10-18T19:10:44.979Z,99.90
2018-10-18T19:13:14.379Z,99.90
2018-10-18T19:15:44.115Z,99.90
2018-10-18T19:18:13.315Z,99.90
2018-10-18T19:20:43.402Z,99.90
2018-10-18T19:23:20.238Z,99.90
2018-10-18T19:25:49.731Z,99.90
2018-10-18T19:28:19.755Z,99.90
2018-10-18T19:30:51.886Z,99.90
2018-10-18T19:33:21.718Z,99.90
2018-10-18T19:35:51.342Z,99.90
2018-10-18T19:38:20.585Z,99.90
2018-10-18T19:40:49.610Z,99.90
2018-10-18T19:43:20.175Z,99.90
2018-10-18T19:45:51.731Z,99.90
2018-10-18T19:48:22.494Z,99.90
2018-10-18T19:50:55.624Z,99.90
2018-10-18T19:53:28.058Z,99.90
2018-10-18T19:56:01.466Z,99.90
2018-10-18T19:58:30.730Z,99.90
2018-10-18T20:00:59.270Z,99.90
2018-10-18T20:03:27.827Z,99.90
2018-10-18T20:05:57.232Z,99.90
2018-10-18T20:08:26.093Z,99.90
2018-10-18T20:10:54.632Z,99.90
2018-10-18T20:13:23.386Z,99.90
2018-10-18T20:15:51.936Z,99.90
2018-10-18T20:18:20.536Z,99.90
2018-10-18T20:20:49.081Z,99.90
2018-10-18T20:23:17.827Z,99.90
2018-10-18T20:25:46.558Z,99.90
2018-10-18T20:28:15.180Z,99.90
2018-10-18T20:30:43.749Z,99.90
2018-10-18T20:33:12.294Z,99.90
2018-10-18T20:35:40.900Z,99.90
2018-10-18T20:38:09.419Z,99.90
2018-10-18T20:40:38.043Z,99.90
2018-10-18T20:43:06.603Z,99.90
2018-10-18T20:45:36.231Z,99.90
2018-10-18T20:48:04.935Z,99.90
2018-10-18T20:50:33.475Z,99.90
2018-10-18T20:53:02.095Z,99.90
2018-10-18T20:55:30.616Z,99.90
2018-10-18T20:57:59.154Z,99.90
2018-10-18T21:00:27.736Z,99.90
2018-10-18T21:02:56.419Z,99.90
2018-10-18T21:05:25.281Z,99.90
2018-10-18T21:07:53.807Z,99.90
2018-10-18T21:10:22.350Z,99.90
2018-10-18T21:12:50.929Z,99.90
2018-10-18T21:15:19.503Z,99.90
2018-10-18T21:17:48.058Z,99.90
2018-10-18T21:20:16.626Z,99.90
2018-10-18T21:22:45.189Z,99.90
2018-10-18T21:25:13.813Z,99.90
2018-10-18T21:27:42.372Z,99.90
2018-10-18T21:30:10.979Z,99.90
2018-10-18T21:32:39.516Z,99.90
2018-10-18T21:35:08.715Z,99.90
2018-10-18T21:37:37.359Z,99.90
2018-10-18T21:40:05.951Z,99.90
2018-10-18T21:42:34.495Z,99.90
2018-10-18T21:45:04.470Z,99.90
2018-10-18T21:47:33.566Z,99.90
2018-10-18T21:50:02.167Z,99.90
2018-10-18T21:52:30.719Z,99.90
2018-10-18T21:54:59.771Z,99.90
2018-10-18T21:57:28.310Z,99.90
2018-10-18T21:59:56.891Z,99.90
2018-10-18T22:02:25.510Z,99.90
2018-10-18T22:04:54.095Z,99.90
2018-10-18T22:07:22.659Z,99.90
2018-10-18T22:09:51.187Z,99.90
2018-10-18T22:12:19.911Z,99.90
2018-10-18T22:14:48.455Z,99.90
2018-10-18T22:17:17.096Z,99.90
2018-10-18T22:19:45.535Z,99.90
2018-10-18T22:22:14.090Z,99.90
2018-10-18T22:24:43.188Z,99.90
2018-10-18T22:27:11.807Z,99.90
2018-10-18T22:29:40.292Z,99.90
2018-10-18T22:32:08.831Z,99.90
2018-10-18T22:34:37.458Z,99.90
2018-10-18T22:37:07.085Z,99.90
2018-10-18T22:39:35.623Z,99.90
2018-10-18T22:42:04.240Z,99.90
2018-10-18T22:44:32.794Z,99.90
2018-10-18T22:47:01.384Z,99.90
2018-10-18T22:49:29.966Z,99.90
2018-10-18T22:51:58.500Z,99.90
2018-10-18T22:54:27.035Z,99.90
2018-10-18T22:56:55.751Z,99.90
2018-10-18T22:59:24.275Z,99.90
2018-10-18T23:01:52.823Z,99.90
2018-10-18T23:04:21.347Z,99.90
2018-10-18T23:06:50.350Z,99.90
2018-10-18T23:09:19.264Z,99.90
2018-10-18T23:11:47.787Z,99.90
2018-10-18T23:14:16.587Z,99.90
2018-10-18T23:16:45.120Z,99.90
2018-10-18T23:19:13.703Z,99.90
2018-10-18T23:21:42.260Z,99.90
2018-10-18T23:24:10.803Z,99.90
2018-10-18T23:26:39.360Z,99.90
2018-10-18T23:29:07.933Z,99.90
2018-10-18T23:31:36.879Z,99.90
2018-10-18T23:34:05.867Z,99.90
2018-10-18T23:36:34.663Z,99.90
2018-10-18T23:39:04.317Z,99.90
2018-10-18T23:41:32.811Z,99.90
2018-10-18T23:44:01.339Z,99.90
2018-10-18T23:46:29.881Z,99.90
2018-10-18T23:48:58.907Z,99.90
2018-10-18T23:51:27.875Z,99.90
2018-10-18T23:53:56.409Z,99.90
2018-10-18T23:56:25.024Z,99.90
2018-10-18T23:58:53.607Z,99.90
